Latest Weather Observations for Kowen Forest

IDN60901

Issued at 5:31 am EST Monday 6 April 2020 (issued every 10 minutes, with the page automatically refreshed every 10 minutes)

About weather observations | Map of Canberra area stations | Latest observations for Canberra area | Other Formats
Station Details ID: 250071 Name: KOWEN FOREST (PCS) Lat: -35.31 Lon: 149.32 Height: 720.0 m

Portable automatic weather stations (PAWS) are operated by other organisations, such as Fire and Emergency Services, and are included here by agreement. Portable stations may be deployed to a location for a short period and their location may be subject to change without notice. Wind observations from these stations are provided from heights of either three (3) or ten (10) metres above ground level (AGL).

Data from the previous 72 hours. | See also: Recent months for locations in Aust Capital Territory
Date/Time
EST
Temp
°C
App
Temp
°C
Dew
Point
°C
Rel
Hum
%
Delta-T
°C
Wind Press
QNH
hPa
Press
MSL
hPa
Rain since
9am
mm
Dir  Spd
km/h
Gust
km/h
Spd
kts
Gust
kts
06/05:10am 10.1 6.3 9.0 93 0.6 NW 19 26 10 14 - - 0.0
06/05:00am 10.1 6.1 9.0 93 0.6 NW 20 26 11 14 - - 0.0
06/04:50am 10.1 5.7 9.0 93 0.6 NW 22 28 12 15 - - 0.0
06/04:40am 10.1 5.3 8.9 92 0.6 NW 24 28 13 15 - - 0.0
06/04:30am 10.0 6.0 8.9 93 0.6 NW 20 26 11 14 - - 0.0
06/04:20am 10.0 5.6 8.9 93 0.6 NW 22 26 12 14 - - 0.0
06/04:10am 10.0 5.6 8.8 92 0.6 NW 22 28 12 15 - - 0.0
06/04:00am 9.9 4.7 8.8 93 0.6 NW 26 30 14 16 - - 0.0
06/03:50am 9.9 5.5 8.9 93 0.5 NW 22 24 12 13 - - 0.0
06/03:40am 9.9 5.1 8.8 93 0.6 NW 24 28 13 15 - - 0.0
06/03:30am 9.9 4.7 8.9 93 0.5 NW 26 30 14 16 - - 0.0
06/03:20am 9.9 4.7 8.8 93 0.6 NW 26 30 14 16 - - 0.0
06/03:10am 9.9 5.5 8.9 93 0.5 NW 22 30 12 16 - - 0.0
06/03:00am 10.0 5.6 8.9 93 0.6 NW 22 28 12 15 - - 0.0
06/02:50am 10.0 5.2 8.9 93 0.6 NW 24 28 13 15 - - 0.0
06/02:40am 10.0 5.6 9.0 93 0.5 NW 22 28 12 15 - - 0.0
06/02:30am 10.0 6.2 9.0 93 0.5 NNW 19 22 10 12 - - 0.0
06/02:20am 10.0 6.2 9.0 93 0.5 NNW 19 22 10 12 - - 0.0
06/02:10am 10.0 6.6 9.0 93 0.5 NNW 17 19 9 10 - - 0.0
06/02:00am 10.0 6.6 9.0 93 0.5 NNW 17 20 9 11 - - 0.0
06/01:50am 10.1 7.4 9.0 93 0.6 NNW 13 15 7 8 - - 0.0
06/01:40am 10.1 7.4 8.8 92 0.7 NNW 13 17 7 9 - - 0.0
06/01:30am 10.1 7.4 8.8 92 0.7 NNW 13 15 7 8 - - 0.0
06/01:20am 10.1 7.0 8.8 92 0.7 NW 15 19 8 10 - - 0.0
06/01:10am 10.3 7.2 8.7 90 0.8 NW 15 20 8 11 - - 0.0
06/01:00am 10.5 6.9 8.5 87 1.0 NW 17 20 9 11 - - 0.0
06/12:50am 10.7 7.1 8.3 85 1.2 NW 17 22 9 12 - - 0.0
06/12:40am 10.8 7.9 8.1 83 1.4 NNW 13 24 7 13 - - 0.0
06/12:30am 10.8 7.1 8.0 83 1.4 NW 17 20 9 11 - - 0.0
06/12:20am 10.8 7.5 8.0 83 1.4 NW 15 19 8 10 - - 0.0
06/12:10am 10.8 7.1 7.9 82 1.5 NW 17 22 9 12 - - 0.0
06/12:00am 10.8 7.1 7.9 82 1.5 NW 17 20 9 11 - - 0.0
 
Date/Time
EST
Temp
°C
App
Temp
°C
Dew
Point
°C
Rel
Hum
%
Delta-T
°C
Wind Press
QNH
hPa
Press
MSL
hPa
Rain since
9am
mm
Dir  Spd
km/h
Gust
km/h
Spd
kts
Gust
kts
05/11:50pm 10.7 7.0 7.9 83 1.4 NW 17 20 9 11 - - 0.0
05/11:40pm 10.7 7.0 7.9 83 1.4 NW 17 22 9 12 - - 0.0
05/11:30pm 10.7 6.6 8.0 83 1.4 NW 19 22 10 12 - - 0.0
05/11:20pm 10.8 6.1 7.8 82 1.5 WNW 22 26 12 14 - - 0.0
05/11:10pm 10.8 6.1 7.8 82 1.5 WNW 22 26 12 14 - - 0.0
05/11:00pm 10.8 5.8 7.9 82 1.5 WNW 24 32 13 17 - - 0.0
05/10:50pm 10.8 5.3 7.7 81 1.6 WNW 26 32 14 17 - - 0.0
05/10:40pm 10.9 5.8 7.6 80 1.7 WNW 24 32 13 17 - - 0.0
05/10:30pm 10.9 5.4 7.5 79 1.7 WNW 26 30 14 16 - - 0.0
05/10:20pm 10.9 5.8 7.5 79 1.7 WNW 24 28 13 15 - - 0.0
05/10:10pm 10.9 6.1 7.3 78 1.8 WNW 22 28 12 15 - - 0.0
05/10:00pm 10.9 6.7 7.3 78 1.8 WNW 19 26 10 14 - - 0.0
05/09:50pm 11.0 6.6 7.3 78 1.8 WNW 20 24 11 13 - - 0.0
05/09:40pm 10.9 6.6 7.2 78 1.8 WNW 19 22 10 12 - - 0.0
05/09:30pm 10.9 6.6 7.2 78 1.8 WNW 19 26 10 14 - - 0.0
05/09:20pm 10.9 7.4 7.2 78 1.8 NW 15 19 8 10 - - 0.0
05/09:10pm 10.9 7.0 7.0 77 1.9 NW 17 24 9 13 - - 0.0
05/09:00pm 10.8 6.9 7.0 77 1.9 NW 17 24 9 13 - - 0.0
05/08:50pm 10.9 6.6 7.1 77 1.9 WNW 19 22 10 12 - - 0.0
05/08:40pm 10.9 6.4 6.8 76 2.0 WNW 20 26 11 14 - - 0.0
05/08:30pm 10.8 6.5 6.8 76 2.0 WNW 19 22 10 12 - - 0.0
05/08:20pm 10.8 7.2 6.9 77 1.9 WNW 15 20 8 11 - - 0.0
05/08:10pm 10.8 6.8 6.7 76 2.0 WNW 17 19 9 10 - - 0.0
05/08:00pm 10.8 6.4 6.5 75 2.1 WNW 19 24 10 13 - - 0.0
05/07:50pm 10.7 5.7 6.5 75 2.1 NW 22 28 12 15 - - 0.0
05/07:40pm 10.7 6.1 6.4 75 2.1 NW 20 22 11 12 - - 0.0
05/07:30pm 10.6 6.2 6.6 76 2.0 NW 19 22 10 12 - - 0.0
05/07:20pm 10.6 5.6 6.5 76 2.0 NW 22 30 12 16 - - 0.0
05/07:10pm 10.6 5.6 6.5 76 2.0 WNW 22 30 12 16 - - 0.0
05/07:00pm 10.6 5.3 6.6 76 2.0 WNW 24 30 13 16 - - 0.0
05/06:50pm 10.6 5.1 6.1 74 2.2 NW 24 30 13 16 - - 0.0
05/06:40pm 10.7 5.3 6.3 74 2.1 WNW 24 30 13 16 - - 0.0
05/06:30pm 10.6 4.8 6.1 74 2.2 WNW 26 32 14 17 - - 0.0
05/06:20pm 10.7 5.3 6.3 74 2.1 WNW 24 30 13 16 - - 0.0
05/06:10pm 10.7 4.8 6.0 73 2.3 WNW 26 32 14 17 - - 0.0
05/06:00pm 10.7 4.9 6.1 73 2.2 WNW 26 33 14 18 - - 0.0
05/05:50pm 10.7 4.1 6.0 73 2.3 WNW 30 35 16 19 - - 0.0
05/05:40pm 10.7 5.6 6.0 73 2.3 WNW 22 28 12 15 - - 0.0
05/05:30pm 10.8 5.7 6.1 73 2.3 WNW 22 28 12 15 - - 0.0
05/05:20pm 10.8 5.7 5.9 72 2.4 WNW 22 33 12 18 - - 0.0
05/05:10pm 10.8 6.3 6.0 72 2.3 WNW 19 22 10 12 - - 0.0
05/05:00pm 10.8 6.3 6.1 73 2.3 WNW 19 24 10 13 - - 0.0
05/04:50pm 10.8 6.1 5.9 72 2.4 WNW 20 26 11 14 - - 0.0
05/04:40pm 10.9 6.1 5.8 71 2.5 WNW 20 28 11 15 - - 0.0
05/04:30pm 10.9 5.8 5.8 71 2.5 WNW 22 28 12 15 - - 0.0
05/04:20pm 10.9 6.3 5.7 70 2.5 WNW 19 30 10 16 - - 0.0
05/04:10pm 10.8 5.2 5.6 70 2.5 WNW 24 30 13 16 - - 0.0
05/04:00pm 10.8 5.3 6.1 73 2.3 WNW 24 32 13 17 - - 0.0
05/03:50pm 10.7 4.7 5.3 69 2.6 WNW 26 32 14 17 - - 0.0
05/03:40pm 10.8 5.2 5.6 70 2.5 WNW 24 28 13 15 - - 0.0
05/03:30pm 10.8 4.5 5.5 70 2.5 WNW 28 35 15 19 - - 0.0
05/03:20pm 11.0 4.3 5.4 68 2.7 WNW 30 37 16 20 - - 0.0
05/03:10pm 11.2 4.8 5.4 67 2.8 WNW 28 33 15 18 - - 0.0
05/03:00pm 11.3 4.5 5.0 65 3.0 WNW 30 35 16 19 - - 0.0
05/02:50pm 11.5 4.7 4.9 64 3.1 WNW 30 39 16 21 - - 0.0
05/02:40pm 11.6 3.8 4.8 63 3.2 W 35 41 19 22 - - 0.0
05/02:30pm 12.0 4.7 4.7 61 3.5 WNW 32 43 17 23 - - 0.0
05/02:20pm 12.1 4.7 5.1 62 3.4 WNW 33 39 18 21 - - 0.0
05/02:10pm 11.7 3.8 4.4 61 3.4 WNW 35 44 19 24 - - 0.0
05/02:00pm 11.8 2.9 5.1 63 3.2 W 41 48 22 26 - - 0.0
05/01:50pm 12.2 3.6 4.6 59 3.6 WNW 39 46 21 25 - - 0.0
05/01:40pm 12.1 2.5 4.6 60 3.6 WNW 44 50 24 27 - - 0.0
05/01:30pm 12.8 4.6 4.7 58 3.9 WNW 37 46 20 25 - - 0.0
05/01:20pm 12.3 3.4 5.0 61 3.5 WNW 41 48 22 26 - - 0.0
05/01:10pm 12.1 3.1 4.4 59 3.6 W 41 48 22 26 - - 0.0
05/01:00pm 11.7 3.1 4.5 61 3.4 WNW 39 48 21 26 - - 0.0
05/12:50pm 11.6 3.3 4.4 61 3.4 W 37 41 20 22 - - 0.0
05/12:40pm 11.5 4.0 4.2 61 3.4 W 33 39 18 21 - - 0.0
05/12:30pm 11.4 4.5 4.8 64 3.1 W 30 44 16 24 - - 0.0
05/12:20pm 11.4 4.8 4.4 62 3.3 WNW 28 37 15 20 - - 0.0
05/12:10pm 11.2 3.7 4.6 64 3.1 NW 33 37 18 20 - - 0.0
05/12:00pm 11.2 4.3 4.5 63 3.2 WNW 30 39 16 21 - - 0.0
05/11:50am 11.0 4.5 4.6 64 3.0 WNW 28 35 15 19 - - 0.0
05/11:40am 11.0 4.8 4.2 63 3.2 WNW 26 35 14 19 - - 0.0
05/11:30am 10.8 3.8 4.0 63 3.2 WNW 30 39 16 21 - - 0.0
05/11:20am 10.9 3.9 4.2 63 3.1 W 30 33 16 18 - - 0.0
05/11:10am 10.8 4.3 4.6 65 2.9 WNW 28 37 15 20 - - 0.0
05/11:00am 10.6 3.2 3.9 63 3.1 WNW 32 39 17 21 - - 0.0
05/10:50am 10.7 3.3 3.9 63 3.1 W 32 37 17 20 - - 0.0
05/10:40am 10.5 2.9 4.0 64 3.0 WNW 33 39 18 21 - - 0.0
05/10:30am 10.8 3.2 3.8 62 3.2 WNW 33 37 18 20 - - 0.0
05/10:20am 10.9 3.9 3.9 62 3.2 WNW 30 39 16 21 - - 0.0
05/10:10am 10.4 2.9 3.7 63 3.1 WNW 32 35 17 19 - - 0.0
05/10:00am 10.3 3.2 3.7 63 3.0 WNW 30 37 16 20 - - 0.0
05/09:50am 9.6 2.4 3.2 64 2.9 WNW 30 35 16 19 - - 0.0
05/09:40am 9.6 2.9 3.8 67 2.7 WNW 28 35 15 19 - - 0.0
05/09:30am 9.6 3.7 4.0 68 2.6 WNW 24 30 13 16 - - 0.0
05/09:20am 9.5 3.9 3.5 66 2.7 WNW 22 30 12 16 - - 0.0
05/09:10am 9.7 4.6 3.9 67 2.7 WNW 20 28 11 15 - - 0.0
05/09:00am 9.4 3.5 3.8 68 2.6 WNW 24 32 13 17 - - 0.6
05/08:50am 9.3 2.2 3.7 68 2.5 WNW 30 35 16 19 - - 0.6
05/08:40am 9.4 3.0 3.3 65 2.8 WNW 26 33 14 18 - - 0.6
05/08:30am 9.6 3.7 3.9 67 2.6 WNW 24 30 13 16 - - 0.6
05/08:20am 9.4 2.2 3.2 65 2.8 WNW 30 39 16 21 - - 0.6
05/08:10am 9.3 2.6 3.5 67 2.6 WNW 28 32 15 17 - - 0.6
05/08:00am 9.2 2.5 3.7 68 2.5 WNW 28 33 15 18 - - 0.6
05/07:50am 9.0 2.7 3.7 69 2.4 WNW 26 33 14 18 - - 0.6
05/07:40am 9.0 2.3 3.9 70 2.3 WNW 28 33 15 18 - - 0.6
05/07:30am 8.8 1.8 4.0 72 2.2 WNW 30 33 16 18 - - 0.6
05/07:20am 8.7 1.1 4.0 72 2.1 WNW 33 41 18 22 - - 0.6
05/07:10am 8.6 -0.9 3.7 71 2.2 WNW 43 48 23 26 - - 0.6
05/07:00am 8.6 0.2 3.9 72 2.1 WNW 37 43 20 23 - - 0.6
05/06:50am 8.6 1.1 4.2 74 2.0 W 33 41 18 22 - - 0.6
05/06:40am 8.5 1.0 4.6 76 1.8 W 33 41 18 22 - - 0.6
05/06:30am 8.5 0.6 4.5 76 1.8 W 35 44 19 24 - - 0.6
05/06:20am 8.4 1.0 4.8 78 1.7 W 33 37 18 20 - - 0.6
05/06:10am 8.4 0.9 4.6 77 1.8 WNW 33 41 18 22 - - 0.6
05/06:00am 8.4 1.2 5.0 79 1.6 WNW 32 35 17 19 - - 0.6
05/05:50am 8.5 1.1 4.9 78 1.7 WNW 33 37 18 20 - - 0.6
05/05:40am 8.5 0.6 4.6 76 1.8 WNW 35 39 19 21 - - 0.6
05/05:30am 8.5 1.1 4.8 77 1.7 WNW 33 37 18 20 - - 0.6
05/05:20am 8.6 1.4 4.9 77 1.7 WNW 32 33 17 18 - - 0.6
05/05:10am 8.6 1.7 4.8 77 1.8 W 30 33 16 18 - - 0.6
05/05:00am 8.7 1.8 4.8 76 1.8 W 30 33 16 18 - - 0.6
05/04:50am 8.7 2.9 4.4 74 2.0 WNW 24 33 13 18 - - 0.6
05/04:40am 8.7 3.3 4.6 75 1.9 WNW 22 28 12 15 - - 0.6
05/04:30am 8.6 3.8 4.9 77 1.7 WNW 19 24 10 13 - - 0.6
05/04:20am 8.6 3.9 5.3 80 1.5 WNW 19 24 10 13 - - 0.6
05/04:10am 8.6 4.0 5.5 81 1.5 NW 19 24 10 13 - - 0.6
05/04:00am 8.6 4.3 5.1 79 1.6 WNW 17 19 9 10 - - 0.6
05/03:50am 8.5 4.5 5.1 79 1.6 WNW 15 20 8 11 - - 0.6
05/03:40am 8.5 4.1 4.8 77 1.7 WNW 17 20 9 11 - - 0.6
05/03:30am 8.5 4.1 4.7 77 1.8 WNW 17 19 9 10 - - 0.6
05/03:20am 8.5 3.7 4.4 75 1.9 WNW 19 24 10 13 - - 0.6
05/03:10am 8.5 4.1 4.5 76 1.8 WNW 17 20 9 11 - - 0.6
05/03:00am 8.5 3.5 4.6 76 1.8 WNW 20 26 11 14 - - 0.6
05/03:50am 8.4 3.6 4.7 77 1.7 WNW 19 20 10 11 - - 0.6
05/03:40am 8.4 3.6 4.8 78 1.7 WNW 19 20 10 11 - - 0.6
05/03:30am 8.4 3.4 4.6 77 1.8 W 20 22 11 12 - - 0.6
05/03:20am 8.6 3.2 4.6 76 1.8 W 22 28 12 15 - - 0.6
05/03:10am 8.7 2.2 4.9 77 1.8 WNW 28 33 15 18 - - 0.6
05/03:00am 8.7 2.6 5.0 77 1.7 WNW 26 32 14 17 - - 0.6
05/02:50am 8.8 3.1 5.0 77 1.8 WNW 24 28 13 15 - - 0.6
05/02:40am 8.8 3.5 4.8 76 1.9 WNW 22 26 12 14 - - 0.6
05/02:30am 8.7 3.4 4.8 76 1.8 WNW 22 28 12 15 - - 0.6
05/02:20am 8.7 3.4 4.9 77 1.8 WNW 22 26 12 14 - - 0.6
05/02:10am 8.7 2.6 4.9 77 1.8 WNW 26 32 14 17 - - 0.6
05/02:00am 8.8 3.5 5.1 77 1.7 WNW 22 26 12 14 - - 0.6
05/01:50am 8.8 3.0 4.6 75 1.9 WNW 24 32 13 17 - - 0.6
05/01:40am 8.8 3.2 5.2 78 1.7 WNW 24 28 13 15 - - 0.6
05/01:30am 9.0 3.0 5.2 77 1.8 WNW 26 32 14 17 - - 0.6
05/01:20am 9.1 2.7 5.4 77 1.7 WNW 28 32 15 17 - - 0.6
05/01:10am 9.2 2.4 5.1 75 1.9 WNW 30 35 16 19 - - 0.6
05/01:00am 9.1 3.4 5.0 75 1.9 WNW 24 28 13 15 - - 0.6
05/12:50am 9.1 2.3 5.0 75 1.9 WNW 30 35 16 19 - - 0.6
05/12:40am 9.2 3.1 5.0 75 2.0 WNW 26 30 14 16 - - 0.6
05/12:30am 9.3 3.0 5.5 77 1.8 WNW 28 32 15 17 - - 0.6
05/12:20am 9.4 3.1 5.6 77 1.8 WNW 28 37 15 20 - - 0.6
05/12:10am 9.4 4.6 5.6 77 1.8 WNW 20 24 11 13 - - 0.6
05/12:00am 9.4 3.8 5.6 77 1.8 WNW 24 32 13 17 - - 0.6
 
Date/Time
EST
Temp
°C
App
Temp
°C
Dew
Point
°C
Rel
Hum
%
Delta-T
°C
Wind Press
QNH
hPa
Press
MSL
hPa
Rain since
9am
mm
Dir  Spd
km/h
Gust
km/h
Spd
kts
Gust
kts
04/11:50pm 9.5 4.3 5.7 77 1.8 WNW 22 26 12 14 - - 0.6
04/11:40pm 9.5 3.9 5.6 76 1.9 WNW 24 30 13 16 - - 0.6
04/11:30pm 9.4 4.2 5.6 77 1.8 W 22 26 12 14 - - 0.6
04/11:20pm 9.4 4.2 5.6 77 1.8 W 22 30 12 16 - - 0.6
04/11:10pm 9.4 3.4 5.4 76 1.9 W 26 35 14 19 - - 0.6
04/11:00pm 9.4 3.8 5.4 76 1.9 WNW 24 30 13 16 - - 0.6
04/10:50pm 9.4 3.7 5.1 74 2.0 WNW 24 33 13 18 - - 0.6
04/10:40pm 9.4 3.8 5.6 77 1.8 WNW 24 32 13 17 - - 0.6
04/10:30pm 9.5 3.2 5.7 77 1.8 WNW 28 33 15 18 - - 0.6
04/10:20pm 9.5 3.4 6.5 81 1.5 W 28 33 15 18 - - 0.6
04/10:10pm 9.6 3.6 7.2 85 1.2 W 28 43 15 23 - - 0.6
04/10:00pm 10.2 4.5 6.8 79 1.7 WNW 26 35 14 19 - - 0.6
04/09:50pm 10.3 5.2 6.0 75 2.1 WNW 22 24 12 13 - - 0.6
04/09:40pm 10.3 4.7 5.6 72 2.2 WNW 24 30 13 16 - - 0.6
04/09:30pm 10.3 3.6 5.6 72 2.2 WNW 30 37 16 20 - - 0.6
04/09:20pm 10.3 5.1 5.7 73 2.2 NW 22 26 12 14 - - 0.6
04/09:10pm 10.4 5.2 5.7 72 2.3 NW 22 30 12 16 - - 0.6
04/09:00pm 10.5 5.4 5.8 72 2.3 WNW 22 28 12 15 - - 0.6
04/08:50pm 10.3 4.7 5.4 71 2.3 WNW 24 30 13 16 - - 0.6
04/08:40pm 10.3 4.4 5.7 73 2.2 WNW 26 30 14 16 - - 0.6
04/08:30pm 10.2 4.6 5.2 71 2.4 WNW 24 32 13 17 - - 0.6
04/08:20pm 9.9 4.3 5.5 74 2.1 WNW 24 30 13 16 - - 0.6
04/08:10pm 9.9 4.0 5.8 75 2.0 WNW 26 30 14 16 - - 0.6
04/08:00pm 9.9 3.6 5.9 76 1.9 WNW 28 33 15 18 - - 0.6
04/07:50pm 10.1 3.1 6.1 76 1.9 WNW 32 37 17 20 - - 0.6
04/07:40pm 10.1 3.9 6.0 76 2.0 W 28 30 15 16 - - 0.6
04/07:30pm 9.9 4.2 6.9 81 1.5 W 26 35 14 19 - - 0.6
04/07:20pm 10.2 3.0 7.7 84 1.3 W 35 46 19 25 - - 0.6
04/07:10pm 11.1 5.1 7.0 76 2.0 W 28 32 15 17 - - 0.6
04/07:00pm 11.3 5.1 6.2 71 2.5 W 28 33 15 18 - - 0.6
04/06:50pm 11.3 5.1 6.3 71 2.4 W 28 35 15 19 - - 0.6
04/06:40pm 11.3 5.5 6.1 70 2.5 W 26 37 14 20 - - 0.6
04/06:30pm 11.5 5.5 7.1 74 2.2 W 28 32 15 17 - - 0.6
04/06:20pm 11.5 5.2 7.2 75 2.1 W 30 35 16 19 - - 0.6
04/06:10pm 11.8 3.6 6.7 71 2.5 W 39 46 21 25 - - 0.6
04/06:00pm 11.6 5.3 7.3 75 2.2 W 30 35 16 19 - - 0.6
04/05:50pm 11.5 3.1 7.4 76 2.1 W 41 44 22 24 - - 0.6
04/05:40pm 11.5 5.2 7.5 76 2.0 W 30 41 16 22 - - 0.6
04/05:30pm 10.8 4.8 8.8 87 1.0 W 30 39 16 21 - - 0.6
04/05:20pm 11.7 4.4 8.8 82 1.5 W 37 48 20 26 - - 0.2
04/05:10pm 12.5 4.5 7.4 71 2.6 WNW 39 43 21 23 - - 0.0
04/05:00pm 12.8 5.6 7.5 70 2.7 WNW 35 44 19 24 - - 0.0
04/04:50pm 12.7 5.1 7.5 70 2.6 W 37 44 20 24 - - 0.0
04/04:40pm 12.4 5.6 7.9 74 2.3 WNW 33 39 18 21 - - 0.0
04/04:30pm 12.2 3.9 7.6 73 2.3 W 41 46 22 25 - - 0.0
04/04:20pm 12.6 5.9 8.1 74 2.3 WNW 33 48 18 26 - - 0.0
04/04:10pm 13.4 6.6 7.7 68 2.9 WNW 33 46 18 25 - - 0.0
04/04:00pm 13.4 4.6 7.3 66 3.1 WNW 43 52 23 28 - - 0.0
04/03:50pm 13.5 6.3 7.6 67 3.0 W 35 44 19 24 - - 0.0
04/03:40pm 13.4 5.3 6.9 65 3.3 W 39 50 21 27 - - 0.0
04/03:30pm 13.5 4.6 6.9 64 3.3 W 43 52 23 28 - - 0.0
04/03:20pm 13.8 6.4 6.8 62 3.5 W 35 43 19 23 - - 0.0
04/03:10pm 14.2 6.0 6.4 59 3.9 WNW 39 46 21 25 - - 0.0
04/03:00pm 14.0 5.8 6.4 60 3.8 WNW 39 46 21 25 - - 0.0
04/02:50pm 13.8 5.3 6.8 62 3.5 WNW 41 46 22 25 - - 0.0
04/02:40pm 13.8 4.3 6.5 61 3.7 WNW 46 56 25 30 - - 0.0
04/02:30pm 14.2 5.0 6.5 60 3.9 W 44 52 24 28 - - 0.0
04/02:20pm 13.8 5.8 7.3 65 3.3 W 39 43 21 23 - - 0.0
04/02:10pm 13.6 6.5 8.2 70 2.8 W 35 46 19 25 - - 0.0
04/02:00pm 12.5 6.0 8.2 75 2.2 W 32 37 17 20 - - 0.0
04/01:50pm 11.9 5.1 9.2 83 1.4 W 35 43 19 23 - - 0.0
04/01:40pm 12.9 5.1 8.2 73 2.4 WNW 39 48 21 26 - - 0.0
04/01:30pm 13.6 6.5 8.0 69 2.9 WNW 35 44 19 24 - - 0.0
04/01:20pm 13.8 5.2 8.2 69 2.9 WNW 43 54 23 29 - - 0.0
04/01:10pm 14.3 6.4 7.8 65 3.4 W 39 46 21 25 - - 0.0
04/01:00pm 13.5 5.5 7.6 67 3.0 WNW 39 46 21 25 - - 0.0
04/12:50pm 13.5 6.4 8.1 70 2.8 WNW 35 43 19 23 - - 0.0
04/12:40pm 13.5 5.3 8.1 70 2.8 WNW 41 48 22 26 - - 0.0
04/12:30pm 13.2 5.0 8.1 71 2.6 WNW 41 50 22 27 - - 0.0
04/12:20pm 12.9 4.6 7.8 71 2.6 WNW 41 46 22 25 - - 0.0
04/12:10pm 13.3 5.4 8.0 70 2.7 WNW 39 46 21 25 - - 0.0
04/12:00pm 12.7 4.9 8.2 74 2.3 WNW 39 46 21 25 - - 0.0
04/11:50am 12.7 4.2 8.6 76 2.1 WNW 43 48 23 26 - - 0.0
04/11:40am 12.1 3.6 9.3 83 1.5 WNW 44 52 24 28 - - 0.0
04/11:30am 12.6 4.3 9.3 80 1.7 WNW 43 50 23 27 - - 0.0
04/11:20am 12.6 3.7 9.3 80 1.7 WNW 46 52 25 28 - - 0.0
04/11:10am 13.0 4.5 9.4 79 1.9 WNW 44 54 24 29 - - 0.0
04/11:00am 13.1 4.8 9.5 79 1.9 WNW 43 54 23 29 - - 0.0
04/10:50am 13.9 7.3 10.1 78 2.0 WNW 35 44 19 24 - - 0.0
04/10:40am 13.7 5.9 9.8 77 2.1 WNW 41 48 22 26 - - 0.0
04/10:30am 14.2 8.2 10.0 76 2.3 WNW 32 37 17 20 - - 0.0
04/10:20am 14.9 8.8 10.4 74 2.5 WNW 33 39 18 21 - - 0.0
04/10:10am 14.8 8.9 11.2 79 2.0 WNW 33 39 18 21 - - 0.0
04/10:00am 14.8 9.2 11.4 80 1.9 WNW 32 35 17 19 - - 10.6
04/09:50am 15.0 10.7 12.0 82 1.7 NW 26 32 14 17 - - 10.6
04/09:40am 14.7 11.3 12.5 87 1.2 NW 22 26 12 14 - - 10.6
04/09:30am 14.3 10.9 12.5 89 1.0 NW 22 28 12 15 - - 10.6
04/09:20am 14.0 11.0 12.5 91 0.8 NW 20 24 11 13 - - 10.6
04/09:10am 13.9 10.2 12.6 92 0.7 NW 24 28 13 15 - - 10.6
04/09:00am 13.7 10.7 12.7 94 0.6 NW 20 26 11 14 - - 10.6
04/08:50am 13.7 10.4 12.7 94 0.6 NW 22 32 12 17 - - 10.6
04/08:40am 13.7 9.6 12.7 94 0.6 WNW 26 35 14 19 - - 10.6
04/08:30am 13.5 9.8 12.8 95 0.4 WNW 24 30 13 16 - - 10.6
04/08:20am 13.5 10.5 12.5 94 0.6 NW 20 28 11 15 - - 10.6
04/08:10am 13.4 10.4 12.5 94 0.5 NW 20 26 11 14 - - 10.6
04/08:00am 13.4 10.6 12.5 94 0.5 NW 19 22 10 12 - - 10.4
04/07:50am 13.5 11.1 12.6 94 0.5 NW 17 20 9 11 - - 10.2
04/07:40am 13.3 10.5 12.6 95 0.4 NNW 19 22 10 12 - - 10.0
04/07:30am 13.2 10.8 12.7 97 0.3 NNW 17 20 9 11 - - 10.0
04/07:20am 13.2 10.8 12.5 95 0.4 NNW 17 20 9 11 - - 10.0
04/07:10am 13.2 11.5 12.6 96 0.3 NNW 13 15 7 8 - - 9.8
04/07:00am 13.1 11.5 12.7 97 0.2 NW 13 15 7 8 - - 9.8
04/06:50am 12.9 12.4 12.7 99 0.1 NW 7 15 4 8 - - 9.8
04/06:40am 13.0 13.1 12.8 99 0.1 NE 4 6 2 3 - - 9.8
04/06:30am 13.0 13.1 12.8 99 0.1 E 4 7 2 4 - - 9.8
04/06:20am 13.0 12.7 12.8 99 0.1 N 6 7 3 4 - - 9.8
04/06:10am 13.0 11.8 12.8 99 0.1 NW 11 13 6 7 - - 9.6
04/06:00am 12.9 11.7 12.8 99 0.1 NW 11 15 6 8 - - 9.6
04/05:50am 12.9 12.1 12.8 99 0.1 WNW 9 13 5 7 - - 9.6
04/05:40am 12.8 11.6 12.7 99 0.1 WSW 11 15 6 8 - - 9.2
04/05:30am 12.4 11.8 12.3 99 0.1 SW 7 11 4 6 - - 8.2
04/05:20am 12.4 11.4 12.3 99 0.1 SSW 9 11 5 6 - - 7.2
04/05:10am 12.4 11.9 12.2 99 0.1 SSW 6 6 3 3 - - 6.2
04/05:00am 12.5 12.1 12.3 99 0.1 SSW 6 6 3 3 - - 5.4
04/04:50am 12.5 11.9 12.3 99 0.1 SSW 7 7 4 4 - - 5.0
04/04:40am 12.7 12.3 12.5 99 0.1 W 6 6 3 3 - - 5.0
04/04:30am 12.5 12.5 12.3 99 0.1 WNW 4 6 2 3 - - 4.6
04/04:20am 12.3 11.8 12.1 99 0.1 NW 6 7 3 4 - - 3.6
04/04:10am 12.2 11.7 11.9 98 0.2 W 6 6 3 3 - - 2.6
04/04:00am 12.2 12.0 11.9 98 0.2 NW 4 6 2 3 - - 2.4
04/03:50am 12.2 12.0 11.9 98 0.2 N 4 6 2 3 - - 2.4
04/03:40am 12.2 12.0 11.9 98 0.2 NNW 4 6 2 3 - - 2.4
04/03:30am 12.3 12.2 12.0 98 0.2 NW 4 6 2 3 - - 2.4
04/03:20am 12.3 11.8 12.0 98 0.2 NW 6 7 3 4 - - 2.4
04/03:10am 12.4 11.9 12.2 99 0.1 NW 6 7 3 4 - - 2.4
04/03:00am 12.4 11.9 12.2 99 0.1 NNE 6 6 3 3 - - 2.4
04/02:50am 12.4 12.7 12.2 99 0.1 WNW 2 4 1 2 - - 2.4
04/02:40am 12.4 12.7 12.2 99 0.1 NW 2 4 1 2 - - 2.4
04/02:30am 12.3 12.6 12.1 99 0.1 N 2 2 1 1 - - 2.4
04/02:20am 12.2 12.5 12.1 99 0.1 N 2 4 1 2 - - 2.4
04/02:10am 12.2 12.1 12.1 99 0.1 NE 4 6 2 3 - - 2.4
04/02:00am 12.2 12.4 12.0 99 0.1 NW 2 6 1 3 - - 2.4
04/01:50am 12.1 11.9 11.9 99 0.1 WNW 4 6 2 3 - - 2.4
04/01:40am 12.0 11.8 11.8 99 0.1 NNW 4 6 2 3 - - 2.4
04/01:30am 11.9 12.1 11.8 99 0.1 W 2 4 1 2 - - 2.4
04/01:20am 11.9 11.7 11.7 99 0.1 WNW 4 6 2 3 - - 2.4
04/01:10am 11.9 11.7 11.7 99 0.1 W 4 6 2 3 - - 2.4
04/01:00am 11.9 11.3 11.7 99 0.1 W 6 6 3 3 - - 2.4
04/12:50am 11.9 11.3 11.7 99 0.1 W 6 6 3 3 - - 2.4
04/12:40am 12.0 11.4 11.8 99 0.1 WSW 6 7 3 4 - - 2.2
04/12:30am 12.2 11.1 11.9 98 0.2 WSW 9 9 5 5 - - 2.0
04/12:20am 12.3 11.6 12.1 99 0.1 WSW 7 11 4 6 - - 2.0
04/12:10am 12.2 11.5 12.0 99 0.1 WSW 7 9 4 5 - - 2.0
04/12:00am 12.3 11.6 12.0 98 0.2 WSW 7 7 4 4 - - 1.8
 
Date/Time
EST
Temp
°C
App
Temp
°C
Dew
Point
°C
Rel
Hum
%
Delta-T
°C
Wind Press
QNH
hPa
Press
MSL
hPa
Rain since
9am
mm
Dir  Spd
km/h
Gust
km/h
Spd
kts
Gust
kts
03/11:50pm 12.4 11.9 12.0 97 0.2 WSW 6 7 3 4 - - 1.8
03/11:40pm 12.5 12.0 12.0 97 0.3 WSW 6 7 3 4 - - 1.8
03/11:30pm 12.5 12.4 12.0 97 0.3 W 4 6 2 3 - - 1.8
03/11:20pm 12.5 12.4 12.0 97 0.3 W 4 6 2 3 - - 1.8
03/11:10pm 12.6 12.4 11.9 95 0.4 W 4 6 2 3 - - 1.6
03/11:00pm 12.6 12.8 11.8 95 0.4 WSW 2 2 1 1 - - 1.6
03/10:50pm 12.6 12.8 11.7 94 0.5 WSW 2 2 1 1 - - 1.6
03/10:40pm 12.6 12.4 11.7 94 0.5 WSW 4 6 2 3 - - 1.6
03/10:30pm 12.6 12.7 11.6 94 0.6 SSE 2 4 1 2 - - 1.4
03/10:20pm 12.6 11.9 11.5 93 0.6 E 6 7 3 4 - - 1.4
03/10:10pm 12.7 11.8 11.3 91 0.8 ESE 7 9 4 5 - - 1.4
03/10:00pm 12.9 11.3 11.5 91 0.8 ESE 11 15 6 8 - - 1.4
03/09:50pm 13.4 11.6 12.1 92 0.7 - 13 15 7 8 - - 1.2
03/09:40pm 14.2 13.9 13.2 94 0.6 ESE 7 13 4 7 - - 1.0
03/09:30pm 14.3 14.2 13.3 94 0.6 E 6 7 3 4 - - 0.6
03/09:20pm 14.4 14.4 13.7 96 0.4 E 6 6 3 3 - - 0.2
03/09:10pm 14.4 14.8 13.7 96 0.4 E 4 6 2 3 - - 0.2
03/09:00pm 14.4 14.8 13.8 96 0.3 E 4 6 2 3 - - 0.2
03/08:50pm 14.4 14.8 13.8 96 0.3 E 4 6 2 3 - - 0.2
03/08:40pm 14.5 14.5 13.7 95 0.5 SE 6 7 3 4 - - 0.2
03/08:30pm 14.5 14.3 13.7 95 0.5 SSE 7 9 4 5 - - 0.2
03/08:20pm 14.5 14.9 13.8 96 0.4 ESE 4 6 2 3 - - 0.2
03/08:10pm 14.6 14.7 13.8 95 0.5 SE 6 7 3 4 - - 0.2
03/08:00pm 14.7 14.8 13.8 94 0.5 SE 6 6 3 3 - - 0.0
03/07:50pm 14.7 14.8 13.9 95 0.5 S 6 6 3 3 - - 0.0
03/07:40pm 14.7 14.8 14.0 96 0.4 SSE 6 6 3 3 - - 0.0
03/07:30pm 14.8 14.9 14.0 95 0.5 SE 6 7 3 4 - - 0.0
03/07:20pm 14.8 14.7 14.0 95 0.5 SE 7 9 4 5 - - 0.0
03/07:10pm 14.9 15.1 14.2 96 0.4 SSE 6 9 3 5 - - 0.0
03/07:00pm 15.1 15.8 14.4 96 0.4 S 4 4 2 2 - - 0.0
03/06:50pm 15.2 16.3 14.5 96 0.4 W 2 2 1 1 - - 0.0
03/06:40pm 15.3 16.4 14.5 95 0.5 NNW 2 2 1 1 - - 0.0
03/06:30pm 15.4 16.5 14.5 94 0.5 WNW 2 2 1 1 - - 0.0
03/06:20pm 15.4 16.4 14.3 93 0.6 W 2 2 1 1 - - 0.0
03/06:10pm 15.4 16.4 14.3 93 0.6 SW 2 4 1 2 - - 0.0
03/06:00pm 15.4 16.0 14.2 92 0.7 SE 4 4 2 2 - - 0.0
03/05:50pm 15.4 15.6 14.1 92 0.8 SE 6 6 3 3 - - 0.0
03/05:40pm 15.4 15.6 14.1 92 0.8 SE 6 7 3 4 - - 0.0
03/05:30pm 15.5 16.0 14.1 91 0.8 E 4 6 2 3 - - 0.0
03/05:20pm 15.5 16.0 14.1 91 0.8 SE 4 7 2 4 - - 0.0
03/05:10pm 15.6 15.8 14.1 91 0.9 SE 6 7 3 4 - - 0.0
03/05:00pm 15.7 16.4 14.4 92 0.8 SSE 4 4 2 2 - - 0.0
03/04:50pm 15.8 16.8 14.4 91 0.8 SSE 2 4 1 2 - - 0.0
03/04:40pm 15.9 16.9 14.3 90 0.9 SSW 2 4 1 2 - - 0.0
03/04:30pm 16.0 16.9 13.9 87 1.2 NNE 2 2 1 1 - - 0.0
03/04:20pm 16.0 16.9 13.9 87 1.2 SW 2 4 1 2 - - 0.0
03/04:10pm 16.1 17.0 14.0 87 1.2 S 2 4 1 2 - - 0.0
03/04:00pm 16.2 16.6 13.8 86 1.4 SW 4 6 2 3 - - 0.0
03/03:50pm 16.2 16.6 13.7 85 1.5 WNW 4 4 2 2 - - 0.0
03/03:40pm 16.1 16.8 13.5 84 1.5 NNW 2 4 1 2 - - 0.0
03/03:30pm 16.1 16.1 13.5 84 1.5 N 6 7 3 4 - - 0.0
03/03:20pm 16.2 16.5 13.5 84 1.6 NNW 4 7 2 4 - - 0.0
03/03:10pm 16.1 16.1 13.5 84 1.5 NNW 6 7 3 4 - - 0.0
03/03:00pm 16.1 15.8 13.4 84 1.6 NNW 7 11 4 6 - - 0.0
03/02:50pm 16.1 15.8 13.3 83 1.6 NNW 7 9 4 5 - - 0.0
03/02:40pm 16.1 15.5 13.4 84 1.6 NNW 9 11 5 6 - - 0.0
03/02:30pm 16.4 16.4 13.5 83 1.7 NNW 6 7 3 4 - - 0.0
03/02:20pm 16.2 15.7 12.8 80 2.0 WNW 7 9 4 5 - - 0.0
03/02:10pm 16.1 15.2 12.7 80 1.9 NW 9 11 5 6 - - 0.0
03/02:00pm 16.1 15.8 12.8 81 1.9 NW 6 7 3 4 - - 0.0
03/01:50pm 16.0 15.1 12.7 81 1.9 NNW 9 13 5 7 - - 0.0
03/01:40pm 15.9 15.0 12.7 81 1.8 NNW 9 13 5 7 - - 0.0
03/01:30pm 15.7 15.2 12.5 81 1.8 N 7 11 4 6 - - 0.0
03/01:20pm 15.5 14.2 11.4 76 2.3 N 9 11 5 6 - - 0.0
03/01:10pm 15.6 14.3 11.2 75 2.4 N 9 15 5 8 - - 0.0
03/01:00pm 15.8 13.5 10.3 70 3.0 N 13 15 7 8 - - 0.0
03/12:50pm 15.9 13.8 9.6 66 3.4 NNW 11 15 6 8 - - 0.0
03/12:40pm 16.1 14.4 9.7 66 3.5 NNW 9 13 5 7 - - 0.0
03/12:30pm 16.2 14.8 9.7 65 3.5 NNW 7 11 4 6 - - 0.0
03/12:20pm 15.9 14.1 9.5 66 3.4 NW 9 11 5 6 - - 0.0
03/12:10pm 15.8 13.9 9.0 64 3.6 NW 9 13 5 7 - - 0.0
03/12:00pm 15.9 14.5 8.8 62 3.8 NNW 6 7 3 4 - - 0.0
03/11:50am 15.9 15.1 9.5 66 3.4 WNW 4 6 2 3 - - 0.0
03/11:40am 15.3 15.0 10.0 70 2.9 W 2 2 1 1 - - 0.0
03/11:30am 14.6 13.9 10.2 75 2.4 N 4 6 2 3 - - 0.0
03/11:20am 14.4 13.4 10.4 77 2.2 NE 6 7 3 4 - - 0.0
03/11:10am 14.2 13.1 10.0 76 2.3 NE 6 6 3 3 - - 0.0
03/11:00am 14.0 13.9 10.9 81 1.7 N 2 4 1 2 - - 0.0
03/10:50am 14.0 14.0 11.0 82 1.6 WSW 2 2 1 1 - - 0.0
03/10:40am 14.0 13.8 10.6 80 1.9 SSW 2 2 1 1 - - 0.0
03/10:30am 13.9 13.3 10.3 79 1.9 S 4 4 2 2 - - 0.0
03/10:20am 13.7 13.0 10.0 78 2.0 SE 4 4 2 2 - - 0.0
03/10:10am 13.4 12.9 10.8 84 1.4 ESE 4 4 2 2 - - 0.0
03/10:00am 13.1 12.2 10.6 85 1.4 ESE 6 6 3 3 - - 25.2
03/09:50am 13.0 12.4 10.3 84 1.5 NE 4 6 2 3 - - 25.2
03/09:40am 12.7 12.2 10.6 87 1.1 ENE 4 6 2 3 - - 25.2
03/09:30am 12.5 12.3 10.6 88 1.0 E 2 4 1 2 - - 25.2
03/09:20am 12.3 12.2 10.7 90 0.9 N 2 4 1 2 - - 25.2
03/09:10am 12.2 11.7 10.9 92 0.7 SSE 4 4 2 2 - - 25.2
03/09:00am 12.1 11.2 10.6 90 0.8 SE 6 6 3 3 - - 25.2
03/08:50am 12.2 11.6 10.4 89 1.0 S 4 6 2 3 - - 25.2
03/08:40am 12.2 11.6 10.4 89 1.0 W 4 4 2 2 - - 25.2
03/08:30am 12.2 11.1 10.0 86 1.2 NW 6 9 3 5 - - 25.2
03/08:20am 12.1 10.4 10.0 87 1.1 NW 9 9 5 5 - - 25.2
03/08:10am 12.0 10.7 9.9 87 1.1 NW 7 7 4 4 - - 25.2
03/08:00am 12.0 10.7 9.9 87 1.1 NW 7 9 4 5 - - 25.2
03/07:50am 12.0 9.9 9.8 86 1.2 NW 11 13 6 7 - - 25.2
03/07:40am 11.9 9.8 9.9 87 1.1 NW 11 13 6 7 - - 25.2
03/07:30am 11.8 9.0 10.0 89 1.0 NW 15 17 8 9 - - 25.2
03/07:20am 11.7 9.3 10.2 90 0.8 NW 13 15 7 8 - - 25.2
03/07:10am 11.6 9.0 10.6 94 0.5 NW 15 15 8 8 - - 25.2
03/07:00am 11.6 8.9 10.5 93 0.6 NW 15 17 8 9 - - 25.2
03/06:50am 11.6 8.5 10.4 92 0.6 NW 17 17 9 9 - - 25.2
03/06:40am 11.5 9.5 10.3 92 0.6 NW 11 15 6 8 - - 25.2

Latest Capital City Observations: Canberra | Sydney | Melbourne | Brisbane | Adelaide | Perth | Hobart | Darwin

Other formats

Comma delimited format used in spreadsheet applications
http://www.bom.gov.au/fwo/IDN60903/IDN60903.99764.axf

JavaScript Object Notation format (JSON) in row-major order
http://www.bom.gov.au/fwo/IDN60903/IDN60903.99764.json

Data quality

Most of these data are generated automatically and are frequently updated. Quality checks on data are not normally performed. It is possible for incorrect values to appear. Refer to information at About Latest Weather Observations and please check the disclaimer before using these data.